Mutty's Pride — V4TL — position and weather

sailwx.info

Track history (hours):
 
Tides and Currents Weather Stations Pressure Air Temp Water Temp Dewpoint Dewpoint Depression Visibility Wind Speed Wind Dir Waves Ship Positions

Mutty's Pride

Last reported at 2018-Jun-20 07:32 UTC. Time now 2018-Jun-20 09:01 UTC.
Position N 17°37' W 063°16'.

Length 60 m; draft 3 m.

Type: Ship. MMSI: 341504000.

Date/timePositionNaut miles runAvg speedWind from/ knotsBaromVisibWave heightAir tempDewpointWater temp
2018-Jun-20 07:32N 17°37' W 063°16'1 5.3
2018-Jun-20 07:24N 17°37' W 063°16'3 7.0
2018-Jun-20 07:01N 17°40' W 063°16'4 6.5
2018-Jun-20 06:25N 17°44' W 063°15'3 6.3
2018-Jun-20 05:59N 17°46' W 063°14'3 6.3
2018-Jun-20 05:27N 17°50' W 063°13'3 5.9
2018-Jun-20 05:00N 17°52' W 063°13'3 5.9
2018-Jun-20 04:25N 17°56' W 063°12'3 6.1
2018-Jun-20 03:53N 17°59' W 063°12'3 6.0
2018-Jun-20 03:28N 18°01' W 063°11'3 6.6
2018-Jun-20 02:58N 18°04' W 063°10'4 6.9
2018-Jun-20 02:28N 18°05' W 063°06'1 2.2
2018-Jun-20 01:56N 18°05' W 063°05'0 0.0
2018-Jun-20 01:26N 18°05' W 063°05'0 0.0
2018-Jun-20 00:59N 18°05' W 063°05'0 0.0
2018-Jun-20 00:28N 18°05' W 063°05'0 0.0
2018-Jun-19 23:59N 18°05' W 063°05'0 0.0
2018-Jun-19 23:26N 18°05' W 063°05'0 0.0
2018-Jun-19 22:59N 18°05' W 063°05'0 0.0
2018-Jun-19 22:28N 18°05' W 063°05'0 0.0
2018-Jun-19 21:59N 18°05' W 063°05'0 0.0
2018-Jun-19 21:27N 18°05' W 063°05'0 0.0
2018-Jun-19 21:00N 18°05' W 063°05'0 0.0
2018-Jun-19 20:30N 18°05' W 063°05'0 0.0
2018-Jun-19 19:58N 18°05' W 063°05'0 0.0
2018-Jun-19 19:28N 18°05' W 063°05'0 0.0
2018-Jun-19 18:59N 18°05' W 063°05'0 0.0
2018-Jun-19 18:30N 18°05' W 063°05'0 0.0
2018-Jun-19 17:59N 18°05' W 063°05'0 0.0
2018-Jun-19 17:30N 18°05' W 063°05'0 0.0
2018-Jun-19 16:59N 18°05' W 063°05'0 0.0
2018-Jun-19 16:29N 18°05' W 063°05'0 0.0
2018-Jun-19 15:58N 18°05' W 063°05'0 0.0
2018-Jun-19 15:29N 18°05' W 063°05'0 0.0
2018-Jun-19 14:58N 18°05' W 063°05'0 0.0
2018-Jun-19 14:00N 18°05' W 063°05'0 0.0
2018-Jun-19 13:30N 18°05' W 063°05'0 0.0
2018-Jun-19 13:00N 18°05' W 063°05'0 0.0
2018-Jun-19 12:19N 18°05' W 063°05'0 0.0
2018-Jun-19 12:00N 18°05' W 063°05'0 0.3
2018-Jun-19 11:28N 18°05' W 063°05'0 0.0
2018-Jun-19 10:59N 18°05' W 063°05'0 0.0
2018-Jun-19 10:29N 18°05' W 063°05'0 0.0
2018-Jun-19 09:56N 18°05' W 063°05'0 0.0
2018-Jun-19 09:28N 18°05' W 063°05'0 0.0
2018-Jun-19 08:59N 18°05' W 063°05'0 0.0
2018-Jun-19 08:24N 18°05' W 063°05'0 0.0
2018-Jun-19 07:59N 18°05' W 063°05'0 0.0
2018-Jun-19 07:29N 18°05' W 063°05'0 0.0
2018-Jun-19 06:59N 18°05' W 063°05'0 0.0
2018-Jun-19 06:25N 18°05' W 063°05'0 0.0
2018-Jun-19 05:56N 18°05' W 063°05'0 0.0
2018-Jun-19 05:31N 18°05' W 063°05'0 0.0
2018-Jun-19 04:37N 18°05' W 063°05'0 0.1
2018-Jun-19 04:29N 18°05' W 063°05'0 0.0
2018-Jun-19 03:59N 18°05' W 063°05'0 0.0
2018-Jun-19 03:22N 18°05' W 063°05'0 0.0
2018-Jun-19 02:58N 18°05' W 063°05'0 0.0
2018-Jun-19 02:23N 18°05' W 063°05'0 0.0
2018-Jun-19 01:30N 18°05' W 063°05'0 0.0
2018-Jun-19 00:56N 18°05' W 063°05'0 0.0
2018-Jun-19 00:27N 18°05' W 063°05'0 0.0
2018-Jun-18 23:57N 18°05' W 063°05'0 0.0
2018-Jun-18 23:29N 18°05' W 063°05'0 0.0
2018-Jun-18 22:56N 18°05' W 063°05'0 0.0
2018-Jun-18 22:30N 18°05' W 063°05'0 0.0
2018-Jun-18 22:00N 18°05' W 063°05'0 0.0
2018-Jun-18 21:28N 18°05' W 063°05'0 0.0
2018-Jun-18 20:56N 18°05' W 063°05'0 0.0
2018-Jun-18 20:26N 18°05' W 063°05'1 2.6
2018-Jun-18 20:00N 18°05' W 063°06'4 7.8
2018-Jun-18 19:30N 18°08' W 063°09'3 5.6
2018-Jun-18 18:57N 18°11' W 063°10'4 0.6
2018-Jun-18 12:06N 18°12' W 063°06'0 0.0
2018-Jun-18 10:38N 18°12' W 063°06'1 5.0
2018-Jun-18 10:21N 18°12' W 063°07'3 8.2
2018-Jun-18 10:00N 18°11' W 063°10'4 7.3
2018-Jun-18 09:29N 18°07' W 063°11'4 8.5
2018-Jun-18 09:00N 18°03' W 063°10'4 8.5
2018-Jun-18 08:30N 18°00' W 063°07'5 8.5
2018-Jun-18 07:57N 17°57' W 063°03'4 8.7
2018-Jun-18 07:29N 17°55' W 062°59'4 8.6
2018-Jun-18 06:59N 17°53' W 062°55'3 0.1
2018-Jun-16 23:09N 17°55' W 062°56'1 7.0
2018-Jun-16 22:59N 17°56' W 062°57'4 7.0
2018-Jun-16 22:28N 17°58' W 063°00'3 6.6
2018-Jun-16 21:58N 18°00' W 063°03'1 1.0
2018-Jun-16 21:14N 18°01' W 063°03'0 0.0
2018-Jun-16 11:25N 18°01' W 063°03'4 8.7
2018-Jun-16 10:57N 18°01' W 063°07'4 9.5
2018-Jun-16 10:30N 18°05' W 063°10'5 9.7
2018-Jun-16 10:00N 18°09' W 063°11'3 0.1
2018-Jun-14 21:43N 18°11' W 063°09'210.2
2018-Jun-14 21:30N 18°10' W 063°10'5 9.7
2018-Jun-14 21:00N 18°05' W 063°11'610.1
2018-Jun-14 20:27N 18°01' W 063°06'4 8.0
2018-Jun-14 20:00N 18°00' W 063°03'0 0.0
2018-Jun-14 19:24N 18°00' W 063°03'0 0.7
2018-Jun-14 18:53N 18°00' W 063°03'4 9.5
2018-Jun-14 18:26N 18°02' W 063°07'3 7.7
2018-Jun-14 18:00N 18°04' W 063°10'4 8.2
2018-Jun-14 17:28N 18°05' W 063°05'0 0.1
2018-Jun-14 17:00N 18°05' W 063°05'0 0.0
2018-Jun-14 16:30N 18°05' W 063°05'0 0.0
2018-Jun-14 15:59N 18°05' W 063°05'0 0.0
2018-Jun-14 15:27N 18°05' W 063°05'0 0.0
2018-Jun-14 14:57N 18°05' W 063°05'0 0.0
2018-Jun-14 14:30N 18°05' W 063°05'0 0.0
2018-Jun-14 13:59N 18°05' W 063°05'0 0.0
2018-Jun-14 13:28N 18°05' W 063°05'0 0.0
2018-Jun-14 12:58N 18°05' W 063°05'0 0.0
2018-Jun-14 12:29N 18°05' W 063°05'0 0.0
2018-Jun-14 11:59N 18°05' W 063°05'0 0.5
2018-Jun-14 11:30N 18°05' W 063°05'0 0.1
2018-Jun-14 10:59N 18°05' W 063°05'0 0.0
2018-Jun-14 10:26N 18°05' W 063°05'0 0.0
2018-Jun-14 09:58N 18°05' W 063°05'0 0.0
2018-Jun-14 09:28N 18°05' W 063°05'0 0.0
2018-Jun-14 08:46N 18°05' W 063°05'0 0.0
2018-Jun-14 08:16N 18°05' W 063°05'0 0.0
2018-Jun-14 07:58N 18°05' W 063°05'0 0.0
2018-Jun-14 07:30N 18°05' W 063°05'0 0.0
2018-Jun-14 06:57N 18°05' W 063°05'0 0.0
2018-Jun-14 06:30N 18°05' W 063°05'0 0.0
2018-Jun-14 05:57N 18°05' W 063°05'0 0.0
2018-Jun-14 05:27N 18°05' W 063°05'0 0.0
2018-Jun-14 04:53N 18°05' W 063°05'2 4.1
2018-Jun-14 04:30N 18°05' W 063°07'3 6.6
2018-Jun-14 03:59N 18°04' W 063°10'4 7.8
2018-Jun-14 03:29N 18°00' W 063°09'4 7.9
2018-Jun-14 02:58N 17°56' W 063°08'4 7.7
2018-Jun-14 02:28N 17°52' W 063°07'4 7.8
2018-Jun-14 01:55N 17°48' W 063°06'3 7.7
2018-Jun-14 01:30N 17°45' W 063°05'4 7.7
2018-Jun-14 00:58N 17°41' W 063°04'3 7.5
2018-Jun-14 00:30N 17°38' W 063°03'10 7.7
2018-Jun-13 23:15N 17°29' W 062°60'1 1.8
2018-Jun-13 22:57N 17°29' W 062°59'0 0.0
2018-Jun-13 22:19N 17°29' W 062°59'0 0.0
2018-Jun-13 21:59N 17°29' W 062°59'0 0.0
2018-Jun-13 21:25N 17°29' W 062°59'0 0.0
2018-Jun-13 20:52N 17°29' W 062°59'0 0.0
2018-Jun-13 20:26N 17°29' W 062°59'0 0.0
2018-Jun-13 19:57N 17°29' W 062°59'0 0.0
2018-Jun-13 18:55N 17°29' W 062°59'2 2.3
2018-Jun-13 18:12N 17°29' W 063°01'2 9.2
2018-Jun-13 18:00N 17°30' W 063°03'5 9.1
2018-Jun-13 17:30N 17°32' W 063°07'5 8.7
2018-Jun-13 16:55N 17°35' W 063°12'5 0.4
2018-Jun-13 05:30N 17°38' W 063°16'5 9.2
2018-Jun-13 05:00N 17°42' W 063°15'5 9.1
2018-Jun-13 04:29N 17°47' W 063°14'4 7.0
2018-Jun-13 03:58N 17°50' W 063°13'4 6.8
2018-Jun-13 03:27N 17°54' W 063°13'3 6.7
2018-Jun-13 03:00N 17°57' W 063°12'4 6.8
2018-Jun-13 02:28N 18°00' W 063°11'4 7.0
2018-Jun-13 01:58N 18°04' W 063°10'3 7.1
2018-Jun-13 01:30N 18°05' W 063°07'2 3.7
2018-Jun-13 01:00N 18°05' W 063°05'0 0.0
2018-Jun-13 00:30N 18°05' W 063°05'0 0.0
2018-Jun-13 00:00N 18°05' W 063°05'0 0.0
2018-Jun-12 23:31N 18°05' W 063°05'0 0.0
2018-Jun-12 23:00N 18°05' W 063°05'0 0.0
2018-Jun-12 22:28N 18°05' W 063°05'0 0.0
2018-Jun-12 22:00N 18°05' W 063°05'0 0.0
2018-Jun-12 21:31N 18°05' W 063°05'0 0.0
2018-Jun-12 20:57N 18°05' W 063°05'0 0.0
2018-Jun-12 20:28N 18°05' W 063°05'0 0.0
2018-Jun-12 19:59N 18°05' W 063°05'0 0.0
2018-Jun-12 19:27N 18°05' W 063°05'0 0.0
2018-Jun-12 18:59N 18°05' W 063°05'0 0.0
2018-Jun-12 18:30N 18°05' W 063°05'0 0.0
2018-Jun-12 18:00N 18°05' W 063°05'0 0.0
2018-Jun-12 17:27N 18°05' W 063°05'0 0.0
2018-Jun-12 17:00N 18°05' W 063°05'0 0.0
2018-Jun-12 16:30N 18°05' W 063°05'0 0.0
2018-Jun-12 15:59N 18°05' W 063°05'0 0.0
2018-Jun-12 15:29N 18°05' W 063°05'0 0.0
2018-Jun-12 15:00N 18°05' W 063°05'0 0.0
2018-Jun-12 14:30N 18°05' W 063°05'0 0.0
2018-Jun-12 13:58N 18°05' W 063°05'0 0.0
2018-Jun-12 13:30N 18°05' W 063°05'0 0.0
2018-Jun-12 13:00N 18°05' W 063°05'0 0.0
2018-Jun-12 12:29N 18°05' W 063°05'0 0.0
2018-Jun-12 12:00N 18°05' W 063°05'0 0.4
2018-Jun-12 11:28N 18°05' W 063°05'0 0.0
2018-Jun-12 10:56N 18°05' W 063°05'0 0.0
2018-Jun-12 10:31N 18°05' W 063°05'0 0.0
2018-Jun-12 09:59N 18°05' W 063°05'0 0.0
2018-Jun-12 09:19N 18°05' W 063°05'0 0.0
2018-Jun-12 08:54N 18°05' W 063°05'0 0.0
2018-Jun-12 08:30N 18°05' W 063°05'0 0.0
2018-Jun-12 07:55N 18°05' W 063°05'0 0.0
2018-Jun-12 07:29N 18°05' W 063°05'0 0.0
2018-Jun-12 06:56N 18°05' W 063°05'0 0.0
2018-Jun-12 06:29N 18°05' W 063°05'0 0.0
2018-Jun-12 05:58N 18°05' W 063°05'0 0.0
2018-Jun-12 05:30N 18°05' W 063°05'0 0.0
2018-Jun-12 04:58N 18°05' W 063°05'0 0.0
2018-Jun-12 04:30N 18°05' W 063°05'0 0.0
2018-Jun-12 03:59N 18°05' W 063°05'0 0.0
2018-Jun-12 03:28N 18°05' W 063°05'0 0.0
2018-Jun-12 02:56N 18°05' W 063°05'0 0.0
2018-Jun-12 02:25N 18°05' W 063°05'0 0.0
2018-Jun-12 01:59N 18°05' W 063°05'0 0.0
2018-Jun-12 01:29N 18°05' W 063°05'0 0.0
2018-Jun-12 01:00N 18°05' W 063°05'0 0.0
2018-Jun-12 00:28N 18°05' W 063°05'0 0.0
2018-Jun-12 00:00N 18°05' W 063°05'0 0.0
2018-Jun-11 23:30N 18°05' W 063°05'0 0.0
2018-Jun-11 22:58N 18°05' W 063°05'0 0.0
2018-Jun-11 22:30N 18°05' W 063°05'0 0.0
2018-Jun-11 21:59N 18°05' W 063°05'0 0.0
2018-Jun-11 21:30N 18°05' W 063°05'0 0.0
2018-Jun-11 20:57N 18°05' W 063°05'0 0.0
2018-Jun-11 20:30N 18°05' W 063°05'0 0.0
2018-Jun-11 19:56N 18°05' W 063°05'0 0.1
2018-Jun-11 19:30N 18°05' W 063°05'0 0.0
2018-Jun-11 19:00N 18°05' W 063°05'0 0.0
2018-Jun-11 18:30N 18°05' W 063°05'0 0.0
2018-Jun-11 17:59N 18°05' W 063°05'0 0.0
2018-Jun-11 17:19N 18°05' W 063°05'0 0.0
2018-Jun-11 16:54N 18°05' W 063°05'0 0.0
2018-Jun-11 16:30N 18°05' W 063°05'0 0.0
2018-Jun-11 15:59N 18°05' W 063°05'0 0.0
2018-Jun-11 15:24N 18°05' W 063°05'0 0.1
2018-Jun-11 14:59N 18°05' W 063°05'0 0.0
2018-Jun-11 14:29N 18°05' W 063°05'0 0.0
2018-Jun-11 13:59N 18°05' W 063°05'0 0.0
2018-Jun-11 13:29N 18°05' W 063°05'0 0.1
2018-Jun-11 12:59N 18°05' W 063°05'0 0.0
2018-Jun-11 12:29N 18°05' W 063°05'0 0.0
2018-Jun-11 11:54N 18°05' W 063°05'0 0.0
2018-Jun-11 11:30N 18°05' W 063°05'0 0.0
2018-Jun-11 10:59N 18°05' W 063°05'0 0.0
2018-Jun-11 10:27N 18°05' W 063°05'0 0.0
2018-Jun-11 09:57N 18°05' W 063°05'0 0.0
2018-Jun-11 09:17N 18°05' W 063°05'0 0.1
2018-Jun-11 09:00N 18°05' W 063°05'0 0.0
2018-Jun-11 08:23N 18°05' W 063°05'0 0.0
2018-Jun-11 07:57N 18°05' W 063°05'0 0.0
2018-Jun-11 07:29N 18°05' W 063°05'0 0.0
2018-Jun-11 06:58N 18°05' W 063°05'0 0.0
2018-Jun-11 06:31N 18°05' W 063°05'0 0.0
2018-Jun-11 05:59N 18°05' W 063°05'0 0.0
2018-Jun-11 05:23N 18°05' W 063°05'0 0.0
2018-Jun-11 04:40N 18°05' W 063°05'0 0.0
2018-Jun-11 04:28N 18°05' W 063°05'0 0.0
2018-Jun-11 04:01N 18°05' W 063°05'0 0.1
2018-Jun-11 03:27N 18°05' W 063°05'4 7.9
2018-Jun-11 02:59N 18°08' W 063°06'2 2.7
2018-Jun-11 02:24N 18°10' W 063°06'2 5.9
2018-Jun-11 02:00N 18°08' W 063°07'4 7.0
2018-Jun-11 01:29N 18°05' W 063°09'4 6.8
2018-Jun-11 00:57N 18°01' W 063°09'3 7.6
2018-Jun-11 00:30N 17°58' W 063°07'4 7.5
2018-Jun-11 00:00N 17°55' W 063°06'4 7.6
2018-Jun-10 23:29N 17°51' W 063°04'4 7.6
2018-Jun-10 23:00N 17°47' W 063°03'4 7.4
2018-Jun-10 22:29N 17°44' W 063°02'9 7.5
2018-Jun-10 21:19N 17°36' W 062°58'3 7.4
2018-Jun-10 20:54N 17°33' W 062°57'5 7.6
2018-Jun-10 20:18N 17°29' W 062°55'3 7.8
2018-Jun-10 19:53N 17°26' W 062°54'  
Track history (hours):
 
Tides and Currents Weather Stations Pressure Air Temp Water Temp Dewpoint Dewpoint Depression Visibility Wind Speed Wind Dir Waves Ship Positions

Mutty's Pride

Last reported at 2018-Jun-20 07:32 UTC. Time now 2018-Jun-20 09:01 UTC.
Position N 17°37' W 063°16'.

Length 60 m; draft 3 m.

Type: Ship. MMSI: 341504000.

Date/timePositionNaut miles runAvg speedWind from/ knotsBaromVisibWave heightAir tempDewpointWater temp
2018-Jun-20 07:32N 17°37' W 063°16'1 5.3
2018-Jun-20 07:24N 17°37' W 063°16'3 7.0
2018-Jun-20 07:01N 17°40' W 063°16'4 6.5
2018-Jun-20 06:25N 17°44' W 063°15'3 6.3
2018-Jun-20 05:59N 17°46' W 063°14'3 6.3
2018-Jun-20 05:27N 17°50' W 063°13'3 5.9
2018-Jun-20 05:00N 17°52' W 063°13'3 5.9
2018-Jun-20 04:25N 17°56' W 063°12'3 6.1
2018-Jun-20 03:53N 17°59' W 063°12'3 6.0
2018-Jun-20 03:28N 18°01' W 063°11'3 6.6
2018-Jun-20 02:58N 18°04' W 063°10'4 6.9
2018-Jun-20 02:28N 18°05' W 063°06'1 2.2
2018-Jun-20 01:56N 18°05' W 063°05'0 0.0
2018-Jun-20 01:26N 18°05' W 063°05'0 0.0
2018-Jun-20 00:59N 18°05' W 063°05'0 0.0
2018-Jun-20 00:28N 18°05' W 063°05'0 0.0
2018-Jun-19 23:59N 18°05' W 063°05'0 0.0
2018-Jun-19 23:26N 18°05' W 063°05'0 0.0
2018-Jun-19 22:59N 18°05' W 063°05'0 0.0
2018-Jun-19 22:28N 18°05' W 063°05'0 0.0
2018-Jun-19 21:59N 18°05' W 063°05'0 0.0
2018-Jun-19 21:27N 18°05' W 063°05'0 0.0
2018-Jun-19 21:00N 18°05' W 063°05'0 0.0
2018-Jun-19 20:30N 18°05' W 063°05'0 0.0
2018-Jun-19 19:58N 18°05' W 063°05'0 0.0
2018-Jun-19 19:28N 18°05' W 063°05'0 0.0
2018-Jun-19 18:59N 18°05' W 063°05'0 0.0
2018-Jun-19 18:30N 18°05' W 063°05'0 0.0
2018-Jun-19 17:59N 18°05' W 063°05'0 0.0
2018-Jun-19 17:30N 18°05' W 063°05'0 0.0
2018-Jun-19 16:59N 18°05' W 063°05'0 0.0
2018-Jun-19 16:29N 18°05' W 063°05'0 0.0
2018-Jun-19 15:58N 18°05' W 063°05'0 0.0
2018-Jun-19 15:29N 18°05' W 063°05'0 0.0
2018-Jun-19 14:58N 18°05' W 063°05'0 0.0
2018-Jun-19 14:00N 18°05' W 063°05'0 0.0
2018-Jun-19 13:30N 18°05' W 063°05'0 0.0
2018-Jun-19 13:00N 18°05' W 063°05'0 0.0
2018-Jun-19 12:19N 18°05' W 063°05'0 0.0
2018-Jun-19 12:00N 18°05' W 063°05'0 0.3
2018-Jun-19 11:28N 18°05' W 063°05'0 0.0
2018-Jun-19 10:59N 18°05' W 063°05'0 0.0
2018-Jun-19 10:29N 18°05' W 063°05'0 0.0
2018-Jun-19 09:56N 18°05' W 063°05'0 0.0
2018-Jun-19 09:28N 18°05' W 063°05'0 0.0
2018-Jun-19 08:59N 18°05' W 063°05'0 0.0
2018-Jun-19 08:24N 18°05' W 063°05'0 0.0
2018-Jun-19 07:59N 18°05' W 063°05'0 0.0
2018-Jun-19 07:29N 18°05' W 063°05'0 0.0
2018-Jun-19 06:59N 18°05' W 063°05'0 0.0
2018-Jun-19 06:25N 18°05' W 063°05'0 0.0
2018-Jun-19 05:56N 18°05' W 063°05'0 0.0
2018-Jun-19 05:31N 18°05' W 063°05'0 0.0
2018-Jun-19 04:37N 18°05' W 063°05'0 0.1
2018-Jun-19 04:29N 18°05' W 063°05'0 0.0
2018-Jun-19 03:59N 18°05' W 063°05'0 0.0
2018-Jun-19 03:22N 18°05' W 063°05'0 0.0
2018-Jun-19 02:58N 18°05' W 063°05'0 0.0
2018-Jun-19 02:23N 18°05' W 063°05'0 0.0
2018-Jun-19 01:30N 18°05' W 063°05'0 0.0
2018-Jun-19 00:56N 18°05' W 063°05'0 0.0
2018-Jun-19 00:27N 18°05' W 063°05'0 0.0
2018-Jun-18 23:57N 18°05' W 063°05'0 0.0
2018-Jun-18 23:29N 18°05' W 063°05'0 0.0
2018-Jun-18 22:56N 18°05' W 063°05'0 0.0
2018-Jun-18 22:30N 18°05' W 063°05'0 0.0
2018-Jun-18 22:00N 18°05' W 063°05'0 0.0
2018-Jun-18 21:28N 18°05' W 063°05'0 0.0
2018-Jun-18 20:56N 18°05' W 063°05'0 0.0
2018-Jun-18 20:26N 18°05' W 063°05'1 2.6
2018-Jun-18 20:00N 18°05' W 063°06'4 7.8
2018-Jun-18 19:30N 18°08' W 063°09'3 5.6
2018-Jun-18 18:57N 18°11' W 063°10'4 0.6
2018-Jun-18 12:06N 18°12' W 063°06'0 0.0
2018-Jun-18 10:38N 18°12' W 063°06'1 5.0
2018-Jun-18 10:21N 18°12' W 063°07'3 8.2
2018-Jun-18 10:00N 18°11' W 063°10'4 7.3
2018-Jun-18 09:29N 18°07' W 063°11'4 8.5
2018-Jun-18 09:00N 18°03' W 063°10'4 8.5
2018-Jun-18 08:30N 18°00' W 063°07'5 8.5
2018-Jun-18 07:57N 17°57' W 063°03'4 8.7
2018-Jun-18 07:29N 17°55' W 062°59'4 8.6
2018-Jun-18 06:59N 17°53' W 062°55'3 0.1
2018-Jun-16 23:09N 17°55' W 062°56'1 7.0
2018-Jun-16 22:59N 17°56' W 062°57'4 7.0
2018-Jun-16 22:28N 17°58' W 063°00'3 6.6
2018-Jun-16 21:58N 18°00' W 063°03'1 1.0
2018-Jun-16 21:14N 18°01' W 063°03'0 0.0
2018-Jun-16 11:25N 18°01' W 063°03'4 8.7
2018-Jun-16 10:57N 18°01' W 063°07'4 9.5
2018-Jun-16 10:30N 18°05' W 063°10'5 9.7
2018-Jun-16 10:00N 18°09' W 063°11'3 0.1
2018-Jun-14 21:43N 18°11' W 063°09'210.2
2018-Jun-14 21:30N 18°10' W 063°10'5 9.7
2018-Jun-14 21:00N 18°05' W 063°11'610.1
2018-Jun-14 20:27N 18°01' W 063°06'4 8.0
2018-Jun-14 20:00N 18°00' W 063°03'0 0.0
2018-Jun-14 19:24N 18°00' W 063°03'0 0.7
2018-Jun-14 18:53N 18°00' W 063°03'4 9.5
2018-Jun-14 18:26N 18°02' W 063°07'3 7.7
2018-Jun-14 18:00N 18°04' W 063°10'4 8.2
2018-Jun-14 17:28N 18°05' W 063°05'0 0.1
2018-Jun-14 17:00N 18°05' W 063°05'0 0.0
2018-Jun-14 16:30N 18°05' W 063°05'0 0.0
2018-Jun-14 15:59N 18°05' W 063°05'0 0.0
2018-Jun-14 15:27N 18°05' W 063°05'0 0.0
2018-Jun-14 14:57N 18°05' W 063°05'0 0.0
2018-Jun-14 14:30N 18°05' W 063°05'0 0.0
2018-Jun-14 13:59N 18°05' W 063°05'0 0.0
2018-Jun-14 13:28N 18°05' W 063°05'0 0.0
2018-Jun-14 12:58N 18°05' W 063°05'0 0.0
2018-Jun-14 12:29N 18°05' W 063°05'0 0.0
2018-Jun-14 11:59N 18°05' W 063°05'0 0.5
2018-Jun-14 11:30N 18°05' W 063°05'0 0.1
2018-Jun-14 10:59N 18°05' W 063°05'0 0.0
2018-Jun-14 10:26N 18°05' W 063°05'0 0.0
2018-Jun-14 09:58N 18°05' W 063°05'0 0.0
2018-Jun-14 09:28N 18°05' W 063°05'0 0.0
2018-Jun-14 08:46N 18°05' W 063°05'0 0.0
2018-Jun-14 08:16N 18°05' W 063°05'0 0.0
2018-Jun-14 07:58N 18°05' W 063°05'0 0.0
2018-Jun-14 07:30N 18°05' W 063°05'0 0.0
2018-Jun-14 06:57N 18°05' W 063°05'0 0.0
2018-Jun-14 06:30N 18°05' W 063°05'0 0.0
2018-Jun-14 05:57N 18°05' W 063°05'0 0.0
2018-Jun-14 05:27N 18°05' W 063°05'0 0.0
2018-Jun-14 04:53N 18°05' W 063°05'2 4.1
2018-Jun-14 04:30N 18°05' W 063°07'3 6.6
2018-Jun-14 03:59N 18°04' W 063°10'4 7.8
2018-Jun-14 03:29N 18°00' W 063°09'4 7.9
2018-Jun-14 02:58N 17°56' W 063°08'4 7.7
2018-Jun-14 02:28N 17°52' W 063°07'4 7.8
2018-Jun-14 01:55N 17°48' W 063°06'3 7.7
2018-Jun-14 01:30N 17°45' W 063°05'4 7.7
2018-Jun-14 00:58N 17°41' W 063°04'3 7.5
2018-Jun-14 00:30N 17°38' W 063°03'10 7.7
2018-Jun-13 23:15N 17°29' W 062°60'1 1.8
2018-Jun-13 22:57N 17°29' W 062°59'0 0.0
2018-Jun-13 22:19N 17°29' W 062°59'0 0.0
2018-Jun-13 21:59N 17°29' W 062°59'0 0.0
2018-Jun-13 21:25N 17°29' W 062°59'0 0.0
2018-Jun-13 20:52N 17°29' W 062°59'0 0.0
2018-Jun-13 20:26N 17°29' W 062°59'0 0.0
2018-Jun-13 19:57N 17°29' W 062°59'0 0.0
2018-Jun-13 18:55N 17°29' W 062°59'2 2.3
2018-Jun-13 18:12N 17°29' W 063°01'2 9.2
2018-Jun-13 18:00N 17°30' W 063°03'5 9.1
2018-Jun-13 17:30N 17°32' W 063°07'5 8.7
2018-Jun-13 16:55N 17°35' W 063°12'5 0.4
2018-Jun-13 05:30N 17°38' W 063°16'5 9.2
2018-Jun-13 05:00N 17°42' W 063°15'5 9.1
2018-Jun-13 04:29N 17°47' W 063°14'4 7.0
2018-Jun-13 03:58N 17°50' W 063°13'4 6.8
2018-Jun-13 03:27N 17°54' W 063°13'3 6.7
2018-Jun-13 03:00N 17°57' W 063°12'4 6.8
2018-Jun-13 02:28N 18°00' W 063°11'4 7.0
2018-Jun-13 01:58N 18°04' W 063°10'3 7.1
2018-Jun-13 01:30N 18°05' W 063°07'2 3.7
2018-Jun-13 01:00N 18°05' W 063°05'0 0.0
2018-Jun-13 00:30N 18°05' W 063°05'0 0.0
2018-Jun-13 00:00N 18°05' W 063°05'0 0.0
2018-Jun-12 23:31N 18°05' W 063°05'0 0.0
2018-Jun-12 23:00N 18°05' W 063°05'0 0.0
2018-Jun-12 22:28N 18°05' W 063°05'0 0.0
2018-Jun-12 22:00N 18°05' W 063°05'0 0.0
2018-Jun-12 21:31N 18°05' W 063°05'0 0.0
2018-Jun-12 20:57N 18°05' W 063°05'0 0.0
2018-Jun-12 20:28N 18°05' W 063°05'0 0.0
2018-Jun-12 19:59N 18°05' W 063°05'0 0.0
2018-Jun-12 19:27N 18°05' W 063°05'0 0.0
2018-Jun-12 18:59N 18°05' W 063°05'0 0.0
2018-Jun-12 18:30N 18°05' W 063°05'0 0.0
2018-Jun-12 18:00N 18°05' W 063°05'0 0.0
2018-Jun-12 17:27N 18°05' W 063°05'0 0.0
2018-Jun-12 17:00N 18°05' W 063°05'0 0.0
2018-Jun-12 16:30N 18°05' W 063°05'0 0.0
2018-Jun-12 15:59N 18°05' W 063°05'0 0.0
2018-Jun-12 15:29N 18°05' W 063°05'0 0.0
2018-Jun-12 15:00N 18°05' W 063°05'0 0.0
2018-Jun-12 14:30N 18°05' W 063°05'0 0.0
2018-Jun-12 13:58N 18°05' W 063°05'0 0.0
2018-Jun-12 13:30N 18°05' W 063°05'0 0.0
2018-Jun-12 13:00N 18°05' W 063°05'0 0.0
2018-Jun-12 12:29N 18°05' W 063°05'0 0.0
2018-Jun-12 12:00N 18°05' W 063°05'0 0.4
2018-Jun-12 11:28N 18°05' W 063°05'0 0.0
2018-Jun-12 10:56N 18°05' W 063°05'0 0.0
2018-Jun-12 10:31N 18°05' W 063°05'0 0.0
2018-Jun-12 09:59N 18°05' W 063°05'0 0.0
2018-Jun-12 09:19N 18°05' W 063°05'0 0.0
2018-Jun-12 08:54N 18°05' W 063°05'0 0.0
2018-Jun-12 08:30N 18°05' W 063°05'0 0.0
2018-Jun-12 07:55N 18°05' W 063°05'0 0.0
2018-Jun-12 07:29N 18°05' W 063°05'0 0.0
2018-Jun-12 06:56N 18°05' W 063°05'0 0.0
2018-Jun-12 06:29N 18°05' W 063°05'0 0.0
2018-Jun-12 05:58N 18°05' W 063°05'0 0.0
2018-Jun-12 05:30N 18°05' W 063°05'0 0.0
2018-Jun-12 04:58N 18°05' W 063°05'0 0.0
2018-Jun-12 04:30N 18°05' W 063°05'0 0.0
2018-Jun-12 03:59N 18°05' W 063°05'0 0.0
2018-Jun-12 03:28N 18°05' W 063°05'0 0.0
2018-Jun-12 02:56N 18°05' W 063°05'0 0.0
2018-Jun-12 02:25N 18°05' W 063°05'0 0.0
2018-Jun-12 01:59N 18°05' W 063°05'0 0.0
2018-Jun-12 01:29N 18°05' W 063°05'0 0.0
2018-Jun-12 01:00N 18°05' W 063°05'0 0.0
2018-Jun-12 00:28N 18°05' W 063°05'0 0.0
2018-Jun-12 00:00N 18°05' W 063°05'0 0.0
2018-Jun-11 23:30N 18°05' W 063°05'0 0.0
2018-Jun-11 22:58N 18°05' W 063°05'0 0.0
2018-Jun-11 22:30N 18°05' W 063°05'0 0.0
2018-Jun-11 21:59N 18°05' W 063°05'0 0.0
2018-Jun-11 21:30N 18°05' W 063°05'0 0.0
2018-Jun-11 20:57N 18°05' W 063°05'0 0.0
2018-Jun-11 20:30N 18°05' W 063°05'0 0.0
2018-Jun-11 19:56N 18°05' W 063°05'0 0.1
2018-Jun-11 19:30N 18°05' W 063°05'0 0.0
2018-Jun-11 19:00N 18°05' W 063°05'0 0.0
2018-Jun-11 18:30N 18°05' W 063°05'0 0.0
2018-Jun-11 17:59N 18°05' W 063°05'0 0.0
2018-Jun-11 17:19N 18°05' W 063°05'0 0.0
2018-Jun-11 16:54N 18°05' W 063°05'0 0.0
2018-Jun-11 16:30N 18°05' W 063°05'0 0.0
2018-Jun-11 15:59N 18°05' W 063°05'0 0.0
2018-Jun-11 15:24N 18°05' W 063°05'0 0.1
2018-Jun-11 14:59N 18°05' W 063°05'0 0.0
2018-Jun-11 14:29N 18°05' W 063°05'0 0.0
2018-Jun-11 13:59N 18°05' W 063°05'0 0.0
2018-Jun-11 13:29N 18°05' W 063°05'0 0.1
2018-Jun-11 12:59N 18°05' W 063°05'0 0.0
2018-Jun-11 12:29N 18°05' W 063°05'0 0.0
2018-Jun-11 11:54N 18°05' W 063°05'0 0.0
2018-Jun-11 11:30N 18°05' W 063°05'0 0.0
2018-Jun-11 10:59N 18°05' W 063°05'0 0.0
2018-Jun-11 10:27N 18°05' W 063°05'0 0.0
2018-Jun-11 09:57N 18°05' W 063°05'0 0.0
2018-Jun-11 09:17N 18°05' W 063°05'0 0.1
2018-Jun-11 09:00N 18°05' W 063°05'0 0.0
2018-Jun-11 08:23N 18°05' W 063°05'0 0.0
2018-Jun-11 07:57N 18°05' W 063°05'0 0.0
2018-Jun-11 07:29N 18°05' W 063°05'0 0.0
2018-Jun-11 06:58N 18°05' W 063°05'0 0.0
2018-Jun-11 06:31N 18°05' W 063°05'0 0.0
2018-Jun-11 05:59N 18°05' W 063°05'0 0.0
2018-Jun-11 05:23N 18°05' W 063°05'0 0.0
2018-Jun-11 04:40N 18°05' W 063°05'0 0.0
2018-Jun-11 04:28N 18°05' W 063°05'0 0.0
2018-Jun-11 04:01N 18°05' W 063°05'0 0.1
2018-Jun-11 03:27N 18°05' W 063°05'4 7.9
2018-Jun-11 02:59N 18°08' W 063°06'2 2.7
2018-Jun-11 02:24N 18°10' W 063°06'2 5.9
2018-Jun-11 02:00N 18°08' W 063°07'4 7.0
2018-Jun-11 01:29N 18°05' W 063°09'4 6.8
2018-Jun-11 00:57N 18°01' W 063°09'3 7.6
2018-Jun-11 00:30N 17°58' W 063°07'4 7.5
2018-Jun-11 00:00N 17°55' W 063°06'4 7.6
2018-Jun-10 23:29N 17°51' W 063°04'4 7.6
2018-Jun-10 23:00N 17°47' W 063°03'4 7.4
2018-Jun-10 22:29N 17°44' W 063°02'9 7.5
2018-Jun-10 21:19N 17°36' W 062°58'3 7.4
2018-Jun-10 20:54N 17°33' W 062°57'5 7.6
2018-Jun-10 20:18N 17°29' W 062°55'3 7.8
2018-Jun-10 19:53N 17°26' W 062°54'  

Dump ship's entire track history